sensor_id;sensor_type;location;lat;lon;timestamp;pressure;altitude;pressure_sealevel;temperature;humidity
17781;BME280;8498;52.516;13.790;2022-09-09T00:03:10;100508.81;;;18.19;87.41
17781;BME280;8498;52.516;13.790;2022-09-09T00:09:12;100503.94;;;18.15;87.14
17781;BME280;8498;52.516;13.790;2022-09-09T00:15:03;100504.53;;;18.09;87.69
17781;BME280;8498;52.516;13.790;2022-09-09T00:20:34;100514.41;;;18.00;87.73
17781;BME280;8498;52.516;13.790;2022-09-09T00:31:40;100510.16;;;17.97;87.92
17781;BME280;8498;52.516;13.790;2022-09-09T00:37:03;100505.28;;;17.93;87.83
17781;BME280;8498;52.516;13.790;2022-09-09T00:42:46;100505.75;;;17.88;87.89
17781;BME280;8498;52.516;13.790;2022-09-09T00:55:05;100500.34;;;17.88;88.33
17781;BME280;8498;52.516;13.790;2022-09-09T01:00:31;100513.84;;;17.96;88.84
17781;BME280;8498;52.516;13.790;2022-09-09T01:18:04;100519.19;;;17.71;87.66
17781;BME280;8498;52.516;13.790;2022-09-09T01:29:16;100512.94;;;17.52;87.62
17781;BME280;8498;52.516;13.790;2022-09-09T01:34:40;100516.38;;;17.45;87.20
17781;BME280;8498;52.516;13.790;2022-09-09T01:40:03;100520.25;;;17.42;86.93
17781;BME280;8498;52.516;13.790;2022-09-09T01:45:28;100519.75;;;17.29;86.85
17781;BME280;8498;52.516;13.790;2022-09-09T01:50:51;100512.31;;;17.23;87.27
17781;BME280;8498;52.516;13.790;2022-09-09T01:56:40;100507.38;;;17.18;87.33
17781;BME280;8498;52.516;13.790;2022-09-09T02:02:09;100518.19;;;17.09;87.06
17781;BME280;8498;52.516;13.790;2022-09-09T02:07:47;100517.09;;;17.02;86.73
17781;BME280;8498;52.516;13.790;2022-09-09T02:13:24;100520.22;;;16.97;86.58
17781;BME280;8498;52.516;13.790;2022-09-09T02:19:09;100526.72;;;16.95;86.83
17781;BME280;8498;52.516;13.790;2022-09-09T02:24:49;100522.81;;;16.89;86.98
17781;BME280;8498;52.516;13.790;2022-09-09T02:30:19;100533.84;;;16.86;86.40
17781;BME280;8498;52.516;13.790;2022-09-09T02:35:51;100528.22;;;16.79;86.02
17781;BME280;8498;52.516;13.790;2022-09-09T02:41:24;100527.97;;;16.73;86.01
17781;BME280;8498;52.516;13.790;2022-09-09T02:47:51;100526.03;;;16.65;85.92
17781;BME280;8498;52.516;13.790;2022-09-09T02:58:22;100521.41;;;16.48;85.82
17781;BME280;8498;52.516;13.790;2022-09-09T03:03:53;100522.53;;;16.45;85.99
17781;BME280;8498;52.516;13.790;2022-09-09T03:09:19;100524.50;;;16.43;85.74
17781;BME280;8498;52.516;13.790;2022-09-09T03:14:43;100520.44;;;16.39;85.65
17781;BME280;8498;52.516;13.790;2022-09-09T03:20:09;100536.69;;;16.38;86.02
17781;BME280;8498;52.516;13.790;2022-09-09T03:25:32;100539.63;;;16.35;86.10
17781;BME280;8498;52.516;13.790;2022-09-09T03:31:05;100545.72;;;16.37;86.24
17781;BME280;8498;52.516;13.790;2022-09-09T03:36:33;100532.59;;;16.34;86.28
17781;BME280;8498;52.516;13.790;2022-09-09T03:41:56;100547.81;;;16.33;85.95
17781;BME280;8498;52.516;13.790;2022-09-09T03:47:19;100541.94;;;16.30;85.68
17781;BME280;8498;52.516;13.790;2022-09-09T03:52:46;100547.44;;;16.19;85.73
17781;BME280;8498;52.516;13.790;2022-09-09T03:58:15;100549.97;;;16.10;86.08
17781;BME280;8498;52.516;13.790;2022-09-09T04:03:38;100552.97;;;16.07;85.77
17781;BME280;8498;52.516;13.790;2022-09-09T04:09:02;100556.19;;;16.01;85.71
17781;BME280;8498;52.516;13.790;2022-09-09T04:14:26;100547.03;;;15.94;85.42
17781;BME280;8498;52.516;13.790;2022-09-09T04:19:51;100554.38;;;15.92;85.41
17781;BME280;8498;52.516;13.790;2022-09-09T04:25:15;100550.28;;;15.88;85.98
17781;BME280;8498;52.516;13.790;2022-09-09T04:30:37;100555.78;;;15.87;85.73
17781;BME280;8498;52.516;13.790;2022-09-09T04:36:02;100554.94;;;15.86;85.76
17781;BME280;8498;52.516;13.790;2022-09-09T04:41:25;100557.75;;;15.85;85.79
17781;BME280;8498;52.516;13.790;2022-09-09T04:46:48;100567.91;;;15.81;85.50
17781;BME280;8498;52.516;13.790;2022-09-09T04:52:11;100576.38;;;15.76;85.82
17781;BME280;8498;52.516;13.790;2022-09-09T04:57:34;100585.53;;;15.74;85.80
17781;BME280;8498;52.516;13.790;2022-09-09T05:02:57;100583.56;;;15.76;85.67
17781;BME280;8498;52.516;13.790;2022-09-09T05:08:19;100583.13;;;15.81;85.68
17781;BME280;8498;52.516;13.790;2022-09-09T05:13:43;100584.69;;;15.83;85.94
17781;BME280;8498;52.516;13.790;2022-09-09T05:19:06;100593.28;;;15.87;85.91
17781;BME280;8498;52.516;13.790;2022-09-09T05:24:38;100583.84;;;15.92;86.48
17781;BME280;8498;52.516;13.790;2022-09-09T05:30:02;100591.31;;;15.98;86.82
17781;BME280;8498;52.516;13.790;2022-09-09T05:35:25;100592.31;;;16.07;87.18
17781;BME280;8498;52.516;13.790;2022-09-09T05:40:48;100606.81;;;16.14;87.39
17781;BME280;8498;52.516;13.790;2022-09-09T05:46:15;100602.56;;;16.21;87.89
17781;BME280;8498;52.516;13.790;2022-09-09T05:51:38;100596.50;;;16.38;87.64
17781;BME280;8498;52.516;13.790;2022-09-09T05:57:04;100604.38;;;16.49;88.25
17781;BME280;8498;52.516;13.790;2022-09-09T06:02:27;100598.88;;;16.61;88.43
17781;BME280;8498;52.516;13.790;2022-09-09T06:07:52;100607.59;;;16.72;89.15
17781;BME280;8498;52.516;13.790;2022-09-09T06:13:15;100600.34;;;16.82;89.24
17781;BME280;8498;52.516;13.790;2022-09-09T06:18:38;100615.75;;;16.90;90.59
17781;BME280;8498;52.516;13.790;2022-09-09T06:24:01;100610.47;;;16.98;91.13
17781;BME280;8498;52.516;13.790;2022-09-09T06:29:24;100614.25;;;17.05;90.49
17781;BME280;8498;52.516;13.790;2022-09-09T06:34:47;100620.75;;;17.12;91.00
17781;BME280;8498;52.516;13.790;2022-09-09T06:40:11;100625.91;;;17.23;91.15
17781;BME280;8498;52.516;13.790;2022-09-09T06:45:34;100620.09;;;17.28;91.10
17781;BME280;8498;52.516;13.790;2022-09-09T06:56:30;100622.38;;;17.50;90.25
17781;BME280;8498;52.516;13.790;2022-09-09T07:01:55;100624.75;;;17.63;90.56
17781;BME280;8498;52.516;13.790;2022-09-09T07:07:19;100631.19;;;17.70;91.33
17781;BME280;8498;52.516;13.790;2022-09-09T07:12:42;100630.44;;;17.78;91.15
17781;BME280;8498;52.516;13.790;2022-09-09T07:18:07;100620.09;;;17.83;91.26
17781;BME280;8498;52.516;13.790;2022-09-09T07:23:32;100627.53;;;17.89;91.23
17781;BME280;8498;52.516;13.790;2022-09-09T07:28:58;100628.00;;;18.02;89.79
17781;BME280;8498;52.516;13.790;2022-09-09T07:34:21;100623.75;;;18.17;90.72
17781;BME280;8498;52.516;13.790;2022-09-09T07:39:44;100634.75;;;18.24;90.97
17781;BME280;8498;52.516;13.790;2022-09-09T07:45:06;100629.81;;;18.37;90.95
17781;BME280;8498;52.516;13.790;2022-09-09T07:50:30;100627.09;;;18.55;90.45
17781;BME280;8498;52.516;13.790;2022-09-09T07:55:52;100629.22;;;18.69;90.08
17781;BME280;8498;52.516;13.790;2022-09-09T08:01:21;100636.69;;;18.75;88.76
17781;BME280;8498;52.516;13.790;2022-09-09T08:06:48;100647.69;;;18.90;88.01
17781;BME280;8498;52.516;13.790;2022-09-09T08:12:12;100638.50;;;19.00;88.62
17781;BME280;8498;52.516;13.790;2022-09-09T08:17:35;100647.38;;;19.19;87.44
17781;BME280;8498;52.516;13.790;2022-09-09T08:23:01;100646.28;;;19.37;86.63
17781;BME280;8498;52.516;13.790;2022-09-09T08:28:23;100650.31;;;19.41;86.78
17781;BME280;8498;52.516;13.790;2022-09-09T08:33:47;100651.13;;;19.60;86.94
17781;BME280;8498;52.516;13.790;2022-09-09T08:39:17;100653.16;;;19.74;85.28
17781;BME280;8498;52.516;13.790;2022-09-09T08:50:33;100658.78;;;19.97;84.93
17781;BME280;8498;52.516;13.790;2022-09-09T08:56:11;100644.13;;;20.07;84.12
17781;BME280;8498;52.516;13.790;2022-09-09T09:01:59;100660.16;;;20.17;82.92
17781;BME280;8498;52.516;13.790;2022-09-09T09:07:48;100660.06;;;20.35;82.60
17781;BME280;8498;52.516;13.790;2022-09-09T09:19:29;100653.72;;;21.07;78.60
17781;BME280;8498;52.516;13.790;2022-09-09T09:24:56;100654.00;;;21.29;76.11
17781;BME280;8498;52.516;13.790;2022-09-09T09:30:25;100644.50;;;21.41;74.14
17781;BME280;8498;52.516;13.790;2022-09-09T09:35:57;100653.75;;;21.54;75.61
17781;BME280;8498;52.516;13.790;2022-09-09T09:41:34;100647.16;;;21.57;74.58
17781;BME280;8498;52.516;13.790;2022-09-09T09:47:12;100654.88;;;21.68;76.11
17781;BME280;8498;52.516;13.790;2022-09-09T09:52:41;100650.72;;;21.80;75.77
17781;BME280;8498;52.516;13.790;2022-09-09T09:58:06;100650.44;;;22.06;72.74
17781;BME280;8498;52.516;13.790;2022-09-09T10:03:34;100648.75;;;22.51;72.26
17781;BME280;8498;52.516;13.790;2022-09-09T10:09:03;100652.59;;;23.09;69.64
17781;BME280;8498;52.516;13.790;2022-09-09T10:20:06;100653.28;;;23.55;67.28
17781;BME280;8498;52.516;13.790;2022-09-09T10:31:19;100653.94;;;24.29;63.01
17781;BME280;8498;52.516;13.790;2022-09-09T10:36:49;100640.59;;;24.34;62.75
17781;BME280;8498;52.516;13.790;2022-09-09T10:42:14;100640.53;;;24.76;60.00
17781;BME280;8498;52.516;13.790;2022-09-09T10:47:50;100647.25;;;25.02;60.77
17781;BME280;8498;52.516;13.790;2022-09-09T10:53:28;100650.44;;;25.53;56.74
17781;BME280;8498;52.516;13.790;2022-09-09T10:59:02;100656.41;;;25.35;57.17
17781;BME280;8498;52.516;13.790;2022-09-09T11:04:38;100659.88;;;25.16;58.86
17781;BME280;8498;52.516;13.790;2022-09-09T11:10:06;100651.31;;;25.19;58.72
17781;BME280;8498;52.516;13.790;2022-09-09T11:15:36;100653.28;;;25.32;59.86
17781;BME280;8498;52.516;13.790;2022-09-09T11:21:02;100647.38;;;25.63;55.26
17781;BME280;8498;52.516;13.790;2022-09-09T11:26:31;100653.34;;;25.92;56.03
17781;BME280;8498;52.516;13.790;2022-09-09T11:32:27;100646.94;;;26.26;52.88
17781;BME280;8498;52.516;13.790;2022-09-09T11:43:40;100639.97;;;25.50;55.45
17781;BME280;8498;52.516;13.790;2022-09-09T11:49:05;100647.88;;;25.38;57.44
17781;BME280;8498;52.516;13.790;2022-09-09T11:54:31;100634.44;;;25.78;57.51
17781;BME280;8498;52.516;13.790;2022-09-09T11:59:53;100632.38;;;25.32;56.51
17781;BME280;8498;52.516;13.790;2022-09-09T12:05:17;100637.44;;;25.48;55.13
17781;BME280;8498;52.516;13.790;2022-09-09T12:10:56;100621.53;;;25.93;54.36
17781;BME280;8498;52.516;13.790;2022-09-09T12:16:36;100617.28;;;25.71;53.05
17781;BME280;8498;52.516;13.790;2022-09-09T12:22:09;100614.19;;;26.00;52.47
17781;BME280;8498;52.516;13.790;2022-09-09T12:33:20;100605.59;;;25.96;52.57
17781;BME280;8498;52.516;13.790;2022-09-09T12:38:44;100608.38;;;26.95;50.75
17781;BME280;8498;52.516;13.790;2022-09-09T12:44:09;100603.59;;;26.45;50.61
17781;BME280;8498;52.516;13.790;2022-09-09T12:49:37;100587.25;;;26.31;52.46
17781;BME280;8498;52.516;13.790;2022-09-09T12:55:03;100593.69;;;26.83;51.28
17781;BME280;8498;52.516;13.790;2022-09-09T13:00:27;100582.78;;;27.54;48.26
17781;BME280;8498;52.516;13.790;2022-09-09T13:05:50;100596.34;;;27.81;47.05
17781;BME280;8498;52.516;13.790;2022-09-09T13:11:17;100584.78;;;28.10;46.86
17781;BME280;8498;52.516;13.790;2022-09-09T13:16:41;100595.31;;;28.06;47.38
17781;BME280;8498;52.516;13.790;2022-09-09T13:22:26;100596.94;;;27.38;46.98
17781;BME280;8498;52.516;13.790;2022-09-09T13:27:57;100581.09;;;27.09;47.77
17781;BME280;8498;52.516;13.790;2022-09-09T13:33:22;100573.78;;;26.83;48.07
17781;BME280;8498;52.516;13.790;2022-09-09T13:44:27;100563.53;;;26.72;51.13
17781;BME280;8498;52.516;13.790;2022-09-09T13:49:50;100567.75;;;26.48;49.77
17781;BME280;8498;52.516;13.790;2022-09-09T13:55:13;100564.19;;;26.27;49.46
17781;BME280;8498;52.516;13.790;2022-09-09T14:00:35;100569.41;;;26.22;52.36
17781;BME280;8498;52.516;13.790;2022-09-09T14:05:58;100583.44;;;26.13;51.58
17781;BME280;8498;52.516;13.790;2022-09-09T14:11:20;100575.88;;;25.95;50.91
17781;BME280;8498;52.516;13.790;2022-09-09T14:16:43;100571.06;;;25.84;51.87
17781;BME280;8498;52.516;13.790;2022-09-09T14:22:06;100573.94;;;25.76;50.87
17781;BME280;8498;52.516;13.790;2022-09-09T14:27:29;100568.94;;;25.73;53.07
17781;BME280;8498;52.516;13.790;2022-09-09T14:32:52;100567.66;;;25.69;53.84
17781;BME280;8498;52.516;13.790;2022-09-09T14:38:14;100563.66;;;25.65;54.01
17781;BME280;8498;52.516;13.790;2022-09-09T14:43:40;100555.94;;;25.62;56.67
17781;BME280;8498;52.516;13.790;2022-09-09T14:49:03;100555.94;;;25.62;54.91
17781;BME280;8498;52.516;13.790;2022-09-09T14:54:26;100553.56;;;25.58;54.86
17781;BME280;8498;52.516;13.790;2022-09-09T14:59:48;100548.41;;;25.64;59.00
17781;BME280;8498;52.516;13.790;2022-09-09T15:05:12;100551.72;;;25.66;57.95
17781;BME280;8498;52.516;13.790;2022-09-09T15:10:34;100570.81;;;25.72;59.45
17781;BME280;8498;52.516;13.790;2022-09-09T15:16:10;100576.69;;;25.28;56.81
17781;BME280;8498;52.516;13.790;2022-09-09T15:21:34;100574.91;;;25.07;58.05
17781;BME280;8498;52.516;13.790;2022-09-09T15:26:57;100579.50;;;25.07;58.36
17781;BME280;8498;52.516;13.790;2022-09-09T15:32:20;100572.41;;;25.06;58.51
17781;BME280;8498;52.516;13.790;2022-09-09T15:37:42;100564.50;;;25.11;57.79
17781;BME280;8498;52.516;13.790;2022-09-09T15:43:05;100549.88;;;25.18;59.88
17781;BME280;8498;52.516;13.790;2022-09-09T15:48:31;100559.44;;;25.08;60.09
17781;BME280;8498;52.516;13.790;2022-09-09T15:53:58;100554.78;;;24.95;59.84
17781;BME280;8498;52.516;13.790;2022-09-09T15:59:25;100574.88;;;24.73;62.07
17781;BME280;8498;52.516;13.790;2022-09-09T16:04:47;100570.78;;;24.49;65.28
17781;BME280;8498;52.516;13.790;2022-09-09T16:10:10;100581.75;;;24.20;70.38
17781;BME280;8498;52.516;13.790;2022-09-09T16:15:33;100583.44;;;23.99;71.71
17781;BME280;8498;52.516;13.790;2022-09-09T16:20:55;100582.53;;;23.71;73.60
17781;BME280;8498;52.516;13.790;2022-09-09T16:26:18;100605.19;;;23.49;75.62
17781;BME280;8498;52.516;13.790;2022-09-09T16:31:41;100610.53;;;23.27;76.51
17781;BME280;8498;52.516;13.790;2022-09-09T16:37:04;100598.41;;;23.09;76.30
17781;BME280;8498;52.516;13.790;2022-09-09T16:42:26;100592.44;;;22.98;76.28
17781;BME280;8498;52.516;13.790;2022-09-09T16:47:49;100594.00;;;22.78;76.35
17781;BME280;8498;52.516;13.790;2022-09-09T16:53:12;100592.06;;;22.49;75.58
17781;BME280;8498;52.516;13.790;2022-09-09T16:58:34;100600.56;;;22.46;74.68
17781;BME280;8498;52.516;13.790;2022-09-09T17:03:59;100593.25;;;22.32;74.70
17781;BME280;8498;52.516;13.790;2022-09-09T17:09:24;100595.16;;;22.09;75.39
17781;BME280;8498;52.516;13.790;2022-09-09T17:14:51;100580.91;;;21.84;75.41
17781;BME280;8498;52.516;13.790;2022-09-09T17:20:13;100581.22;;;21.66;75.94
17781;BME280;8498;52.516;13.790;2022-09-09T17:25:37;100586.53;;;21.51;76.37
17781;BME280;8498;52.516;13.790;2022-09-09T17:31:01;100580.03;;;21.38;76.60
17781;BME280;8498;52.516;13.790;2022-09-09T17:36:34;100577.34;;;21.30;77.10
17781;BME280;8498;52.516;13.790;2022-09-09T17:41:58;100571.66;;;21.16;78.23
17781;BME280;8498;52.516;13.790;2022-09-09T17:47:22;100580.13;;;21.05;77.61
17781;BME280;8498;52.516;13.790;2022-09-09T17:52:44;100583.00;;;21.04;76.22
17781;BME280;8498;52.516;13.790;2022-09-09T17:58:06;100581.84;;;20.90;77.82
17781;BME280;8498;52.516;13.790;2022-09-09T18:03:29;100586.94;;;20.77;78.27
17781;BME280;8498;52.516;13.790;2022-09-09T18:08:56;100613.28;;;20.67;78.82
17781;BME280;8498;52.516;13.790;2022-09-09T18:14:22;100628.81;;;20.57;79.01
17781;BME280;8498;52.516;13.790;2022-09-09T18:19:45;100621.28;;;20.44;79.29
17781;BME280;8498;52.516;13.790;2022-09-09T18:25:08;100617.34;;;20.30;79.43
17781;BME280;8498;52.516;13.790;2022-09-09T18:30:30;100622.41;;;20.17;79.06
17781;BME280;8498;52.516;13.790;2022-09-09T18:35:53;100629.81;;;20.07;77.84
17781;BME280;8498;52.516;13.790;2022-09-09T18:46:47;100649.84;;;19.88;77.10
17781;BME280;8498;52.516;13.790;2022-09-09T18:52:10;100640.22;;;19.94;78.02
17781;BME280;8498;52.516;13.790;2022-09-09T18:57:34;100646.97;;;19.90;79.11
17781;BME280;8498;52.516;13.790;2022-09-09T19:02:57;100646.66;;;19.93;79.53
17781;BME280;8498;52.516;13.790;2022-09-09T19:08:19;100653.72;;;19.94;79.30
17781;BME280;8498;52.516;13.790;2022-09-09T19:13:42;100656.41;;;19.86;79.54
17781;BME280;8498;52.516;13.790;2022-09-09T19:19:08;100644.75;;;19.77;80.05
17781;BME280;8498;52.516;13.790;2022-09-09T19:24:31;100651.13;;;19.68;80.02
17781;BME280;8498;52.516;13.790;2022-09-09T19:29:54;100660.69;;;19.62;80.48
17781;BME280;8498;52.516;13.790;2022-09-09T19:35:18;100640.81;;;19.55;80.28
17781;BME280;8498;52.516;13.790;2022-09-09T19:40:43;100645.63;;;19.43;80.72
17781;BME280;8498;52.516;13.790;2022-09-09T19:46:09;100638.88;;;19.39;81.20
17781;BME280;8498;52.516;13.790;2022-09-09T19:51:32;100643.00;;;19.52;81.18
17781;BME280;8498;52.516;13.790;2022-09-09T19:56:55;100648.91;;;19.55;80.83
17781;BME280;8498;52.516;13.790;2022-09-09T20:02:17;100650.91;;;19.53;80.15
17781;BME280;8498;52.516;13.790;2022-09-09T20:07:40;100665.56;;;19.51;79.72
17781;BME280;8498;52.516;13.790;2022-09-09T20:13:02;100659.59;;;19.39;78.83
17781;BME280;8498;52.516;13.790;2022-09-09T20:18:29;100662.28;;;19.39;79.27
17781;BME280;8498;52.516;13.790;2022-09-09T20:23:53;100665.44;;;19.34;79.48
17781;BME280;8498;52.516;13.790;2022-09-09T20:29:18;100671.50;;;19.28;78.88
17781;BME280;8498;52.516;13.790;2022-09-09T20:34:41;100672.81;;;19.24;78.25
17781;BME280;8498;52.516;13.790;2022-09-09T20:40:09;100677.66;;;19.21;78.20
17781;BME280;8498;52.516;13.790;2022-09-09T20:45:34;100671.47;;;19.20;78.62
17781;BME280;8498;52.516;13.790;2022-09-09T20:51:02;100664.16;;;19.13;78.60
17781;BME280;8498;52.516;13.790;2022-09-09T20:56:25;100661.72;;;19.01;78.74
17781;BME280;8498;52.516;13.790;2022-09-09T21:01:48;100666.72;;;18.88;79.62
17781;BME280;8498;52.516;13.790;2022-09-09T21:07:12;100664.59;;;18.74;79.55
17781;BME280;8498;52.516;13.790;2022-09-09T21:12:34;100669.78;;;18.67;79.92
17781;BME280;8498;52.516;13.790;2022-09-09T21:17:56;100656.09;;;18.61;80.07
17781;BME280;8498;52.516;13.790;2022-09-09T21:23:19;100663.38;;;18.51;80.35
17781;BME280;8498;52.516;13.790;2022-09-09T21:28:41;100655.38;;;18.41;80.83
17781;BME280;8498;52.516;13.790;2022-09-09T21:34:03;100663.94;;;18.37;80.43
17781;BME280;8498;52.516;13.790;2022-09-09T21:39:27;100667.78;;;18.34;80.83
17781;BME280;8498;52.516;13.790;2022-09-09T21:44:49;100664.59;;;18.39;80.92
17781;BME280;8498;52.516;13.790;2022-09-09T21:50:12;100664.00;;;18.45;80.74
17781;BME280;8498;52.516;13.790;2022-09-09T21:55:37;100667.69;;;18.44;80.36
17781;BME280;8498;52.516;13.790;2022-09-09T22:01:10;100658.97;;;18.50;80.05
17781;BME280;8498;52.516;13.790;2022-09-09T22:06:33;100657.69;;;18.54;79.93
17781;BME280;8498;52.516;13.790;2022-09-09T22:11:56;100659.69;;;18.52;79.82
17781;BME280;8498;52.516;13.790;2022-09-09T22:17:19;100665.69;;;18.46;79.66
17781;BME280;8498;52.516;13.790;2022-09-09T22:22:41;100675.38;;;18.39;80.07
17781;BME280;8498;52.516;13.790;2022-09-09T22:28:05;100667.88;;;18.24;80.68
17781;BME280;8498;52.516;13.790;2022-09-09T22:33:28;100668.38;;;18.10;80.84
17781;BME280;8498;52.516;13.790;2022-09-09T22:38:51;100664.63;;;18.03;80.89
17781;BME280;8498;52.516;13.790;2022-09-09T22:44:14;100674.59;;;17.93;81.37
17781;BME280;8498;52.516;13.790;2022-09-09T22:49:36;100654.66;;;17.95;81.69
17781;BME280;8498;52.516;13.790;2022-09-09T22:54:59;100673.69;;;18.02;81.47
17781;BME280;8498;52.516;13.790;2022-09-09T23:00:23;100665.47;;;18.04;81.25
17781;BME280;8498;52.516;13.790;2022-09-09T23:05:52;100658.34;;;18.12;80.38
17781;BME280;8498;52.516;13.790;2022-09-09T23:11:15;100656.34;;;18.14;80.14
17781;BME280;8498;52.516;13.790;2022-09-09T23:16:44;100657.25;;;18.05;80.54
17781;BME280;8498;52.516;13.790;2022-09-09T23:22:07;100663.16;;;17.91;80.56
17781;BME280;8498;52.516;13.790;2022-09-09T23:27:30;100655.44;;;17.78;80.84
17781;BME280;8498;52.516;13.790;2022-09-09T23:32:52;100654.81;;;17.67;80.91
17781;BME280;8498;52.516;13.790;2022-09-09T23:38:14;100654.16;;;17.65;81.15
17781;BME280;8498;52.516;13.790;2022-09-09T23:43:37;100651.03;;;17.59;81.29
17781;BME280;8498;52.516;13.790;2022-09-09T23:49:04;100645.41;;;17.53;81.28
17781;BME280;8498;52.516;13.790;2022-09-09T23:54:29;100653.19;;;17.46;81.48
17781;BME280;8498;52.516;13.790;2022-09-09T23:59:51;100655.50;;;17.41;81.45
